Lathrop, Missouri
Current Conditions -  °F | °C
As of 2:15 AM on Wednesday 26 Nov 2014 (Local Time) from KGPH Reporting Station
Overcast Overcast  
Wind Chill: 36°   Ceiling: 7000
Heat Index: 36°   Visibility: 10mi
Dew Point: 23°   Wind: 3mph
Humidity: 60%   Direction: 120°ESE
Pressure: 29.97"   Gusts: NA
Location:  39.55°N, 94.33°W
Report Text: KGPH 260815Z AUTO 12003KT 10SM BKN070 OVC080 02/M05 A2997 RMK AO2
Loading
Personal Weather Stations






























Interactive Weather Map New forecast layout! Learn more

10-Day Weather Forecast

Advertisements
Track Severe Weather on mobile